ETNL/RLG METAR and TAF weather

Enter ICAO airport designator
Station Type Date Time Source
ETNL METAR 2019/06/26 21:20 UTC NOAA

ETNL 262120Z 29014KT 9999 BKN021 17/13 Q1022 WHT


Station Type Date Time Source
ETNL Decoded METAR 2019/06/26 21:20 UTC NOAA

Laage, Germany (ETNL) 53-55N 012-17E 46M
Jun 26, 2019 - 05:20 PM EDT / 2019.06.26 2120 UTC
Wind: from the WNW (290 degrees) at 16 MPH (14 KT):0
Visibility: greater than 7 mile(s):0
Sky conditions: mostly cloudy
Temperature: 62 F (17 C)
Dew Point: 55 F (13 C)
Relative Humidity: 77%
Pressure (altimeter): 30.18 in. Hg (1022 hPa)
ob: ETNL 262120Z 29014KT 9999 BKN021 17/13 Q1022 WHT
cycle: 21

Station Type Date Time Source
ETNL TAF 2019/06/10 05:34 UTC NOAA

TAF ETNL 100400Z 1005/1018 06008KT 9999 NSW BKN100
TEMPO 1005/1018 07012KT 6000 -RA BKN050 OVC100 PROB30 1015/1018 VRB15G30KT 3000 TSRA BKN030CB BY ETGL

Example: see airport list